createdAt,value
2022-09-14T00:00:39.597Z,99457.44
2022-09-14T00:01:41.322Z,99451.75
2022-09-14T00:02:42.890Z,99455.78
2022-09-14T00:03:44.541Z,99463.03
2022-09-14T00:04:46.003Z,99460.53
2022-09-14T00:05:47.470Z,99453.19
2022-09-14T00:06:49.470Z,99460.44
2022-09-14T00:07:50.923Z,99452.19
2022-09-14T00:08:52.913Z,99452.09
2022-09-14T00:09:54.357Z,99445.84
2022-09-14T00:10:55.806Z,99446.22
2022-09-14T00:11:57.307Z,99443.38
2022-09-14T00:13:00.202Z,99442.19
2022-09-14T00:14:01.937Z,99434.88
2022-09-14T00:15:03.610Z,99432.03
2022-09-14T00:16:05.742Z,99433.69
2022-09-14T00:17:07.444Z,99436.50
2022-09-14T00:18:09.606Z,99436.50
2022-09-14T00:19:18.312Z,99438.16
2022-09-14T00:20:19.887Z,99433.31
2022-09-14T00:21:21.582Z,99437.34
2022-09-14T00:22:23.038Z,99433.31
2022-09-14T00:23:24.514Z,99426.81
2022-09-14T00:24:26.778Z,99416.25
2022-09-14T00:25:28.335Z,99406.91
2022-09-14T00:26:29.791Z,99400.03
2022-09-14T00:27:31.259Z,99396.75
2022-09-14T00:28:37.246Z,99401.69
2022-09-14T00:29:38.845Z,99398.41
2022-09-14T00:30:41.619Z,99396.00
2022-09-14T00:31:43.197Z,99396.00
2022-09-14T00:32:44.666Z,99393.16
2022-09-14T00:33:47.509Z,99394.81
2022-09-14T00:34:48.980Z,99386.28
2022-09-14T00:35:50.541Z,99373.28
2022-09-14T00:36:52.069Z,99379.41
2022-09-14T00:37:53.562Z,99372.53
2022-09-14T00:38:56.514Z,99369.69
2022-09-14T00:39:58.185Z,99361.19
2022-09-14T00:40:59.802Z,99361.19
2022-09-14T00:42:01.424Z,99354.66
2022-09-14T00:43:02.947Z,99355.50
2022-09-14T00:44:04.402Z,99359.53
2022-09-14T00:45:14.216Z,99356.69
2022-09-14T00:46:15.730Z,99359.53
2022-09-14T00:47:17.182Z,99356.69
2022-09-14T00:48:18.905Z,99340.69
2022-09-14T00:49:40.759Z,99359.06
2022-09-14T00:50:42.282Z,99364.75
2022-09-14T00:51:45.823Z,99366.78
2022-09-14T00:52:47.942Z,99363.94
2022-09-14T00:53:49.458Z,99360.28
2022-09-14T00:54:50.891Z,99358.63
2022-09-14T00:55:54.076Z,99354.59
2022-09-14T00:56:56.283Z,99347.25
2022-09-14T00:57:57.991Z,99352.13
2022-09-14T00:58:59.901Z,99356.97
2022-09-14T01:00:01.419Z,99358.16
2022-09-14T01:01:02.945Z,99363.84
2022-09-14T01:02:04.907Z,99359.38
2022-09-14T01:03:06.416Z,99363.03
2022-09-14T01:04:07.934Z,99365.03
2022-09-14T01:05:10.528Z,99364.59
2022-09-14T01:06:12.029Z,99367.44
2022-09-14T01:07:22.410Z,99365.78
2022-09-14T01:08:32.767Z,99371.47
2022-09-14T01:09:46.094Z,99378.78
2022-09-14T01:11:06.458Z,99377.50
2022-09-14T01:12:26.776Z,99369.78
2022-09-14T01:13:33.213Z,99369.78
2022-09-14T01:14:53.296Z,99378.69
2022-09-14T01:15:57.265Z,99371.34
2022-09-14T01:17:04.637Z,99364.84
2022-09-14T01:18:08.390Z,99376.22
2022-09-14T01:19:33.247Z,99378.22
2022-09-14T01:21:00.926Z,99368.88
2022-09-14T01:22:05.905Z,99364.03
2022-09-14T01:23:14.723Z,99363.19
2022-09-14T01:24:30.631Z,99368.06
2022-09-14T01:25:41.376Z,99375.38
2022-09-14T01:26:48.760Z,99362.38
2022-09-14T01:27:51.482Z,99350.03
2022-09-14T01:28:52.998Z,99355.88
2022-09-14T01:29:54.435Z,99341.69
2022-09-14T01:30:55.934Z,99342.50
2022-09-14T01:32:01.944Z,99348.19
2022-09-14T01:33:08.117Z,99343.31
2022-09-14T01:34:12.147Z,99351.84
2022-09-14T01:35:16.691Z,99350.19
2022-09-14T01:36:18.314Z,99350.19
2022-09-14T01:37:22.459Z,99349.00
2022-09-14T01:38:28.127Z,99343.69
2022-09-14T01:39:29.593Z,99342.88
2022-09-14T01:40:34.937Z,99345.34
2022-09-14T01:41:36.438Z,99343.31
2022-09-14T01:42:38.514Z,99339.66
2022-09-14T01:43:40.990Z,99345.34
2022-09-14T01:44:43.048Z,99339.66
2022-09-14T01:45:46.849Z,99333.97
2022-09-14T01:46:53.874Z,99338.84
2022-09-14T01:47:56.145Z,99333.16
2022-09-14T01:49:03.522Z,99336.00
2022-09-14T01:50:11.786Z,99330.31
2022-09-14T01:51:13.850Z,99335.16
2022-09-14T01:52:16.760Z,99335.16
2022-09-14T01:53:29.385Z,99333.53
2022-09-14T01:54:37.182Z,99336.75
2022-09-14T01:55:40.387Z,99331.88
2022-09-14T01:57:08.371Z,99327.38
2022-09-14T01:58:11.920Z,99331.44
2022-09-14T01:59:14.769Z,99334.25
2022-09-14T02:00:16.903Z,99322.09
2022-09-14T02:01:20.213Z,99322.91
2022-09-14T02:02:29.103Z,99322.91
2022-09-14T02:03:37.782Z,99324.09
2022-09-14T02:04:43.483Z,99320.44
2022-09-14T02:05:54.008Z,99317.59
2022-09-14T02:06:56.536Z,99311.91
2022-09-14T02:07:58.035Z,99311.09
2022-09-14T02:09:00.312Z,99303.75
2022-09-14T02:10:01.952Z,99303.75
2022-09-14T02:11:03.417Z,99310.63
2022-09-14T02:12:05.030Z,99311.44
2022-09-14T02:13:07.165Z,99313.44
2022-09-14T02:14:08.722Z,99303.91
2022-09-14T02:15:10.794Z,99303.28
2022-09-14T02:16:12.358Z,99306.94
2022-09-14T02:17:13.932Z,99305.31
2022-09-14T02:18:15.428Z,99301.28
2022-09-14T02:19:20.524Z,99299.97
2022-09-14T02:20:29.767Z,99297.97
2022-09-14T02:21:31.846Z,99292.28
2022-09-14T02:22:33.369Z,99290.63
2022-09-14T02:23:35.310Z,99291.44
2022-09-14T02:24:36.791Z,99291.44
2022-09-14T02:25:41.001Z,99293.84
2022-09-14T02:26:42.689Z,99287.34
2022-09-14T02:27:44.123Z,99282.47
2022-09-14T02:28:47.642Z,99286.50
2022-09-14T02:29:49.187Z,99283.28
2022-09-14T02:31:13.029Z,99292.19
2022-09-14T02:32:20.487Z,99297.50
2022-09-14T02:33:22.033Z,99292.56
2022-09-14T02:34:23.730Z,99297.41
2022-09-14T02:35:41.722Z,99294.56
2022-09-14T02:36:43.260Z,99296.13
2022-09-14T02:37:44.840Z,99288.78
2022-09-14T02:39:08.958Z,99294.47
2022-09-14T02:40:13.762Z,99292.47
2022-09-14T02:41:18.967Z,99293.63
2022-09-14T02:42:20.434Z,99293.63
2022-09-14T02:43:25.846Z,99294.81
2022-09-14T02:44:27.273Z,99296.84
2022-09-14T02:45:29.626Z,99304.91
2022-09-14T02:46:38.659Z,99298.41
2022-09-14T02:47:55.468Z,99295.94
2022-09-14T02:49:02.101Z,99304.81
2022-09-14T02:50:08.210Z,99295.50
2022-09-14T02:51:18.926Z,99296.69
2022-09-14T02:52:37.535Z,99299.53
2022-09-14T02:53:39.008Z,99302.34
2022-09-14T02:54:43.460Z,99303.56
2022-09-14T02:55:51.815Z,99303.91
2022-09-14T02:56:53.298Z,99304.75
2022-09-14T02:58:10.403Z,99297.41
2022-09-14T02:59:11.888Z,99307.56
2022-09-14T03:00:13.611Z,99310.41
2022-09-14T03:01:16.371Z,99310.41
2022-09-14T03:02:18.034Z,99317.75
2022-09-14T03:03:20.537Z,99304.75
2022-09-14T03:04:22.128Z,99317.75
2022-09-14T03:05:23.607Z,99313.72
2022-09-14T03:06:25.080Z,99319.38
2022-09-14T03:07:26.548Z,99322.22
2022-09-14T03:08:28.068Z,99327.09
2022-09-14T03:09:29.503Z,99313.72
2022-09-14T03:10:31.692Z,99319.38
2022-09-14T03:11:33.203Z,99308.03
2022-09-14T03:12:34.684Z,99297.50
2022-09-14T03:13:36.309Z,99291.00
2022-09-14T03:14:37.834Z,99283.31
2022-09-14T03:15:39.468Z,99267.47
2022-09-14T03:16:40.979Z,99268.28
2022-09-14T03:17:46.311Z,99269.94
2022-09-14T03:18:47.982Z,99265.09
2022-09-14T03:19:49.812Z,99258.59
2022-09-14T03:20:51.368Z,99265.91
2022-09-14T03:21:52.824Z,99266.72
2022-09-14T03:22:54.348Z,99273.22
2022-09-14T03:23:57.774Z,99261.88
2022-09-14T03:24:59.212Z,99267.56
2022-09-14T03:26:00.667Z,99255.38
2022-09-14T03:27:02.172Z,99251.34
2022-09-14T03:28:03.684Z,99252.16
2022-09-14T03:29:05.612Z,99255.81
2022-09-14T03:30:07.686Z,99247.31
2022-09-14T03:31:09.788Z,99240.81
2022-09-14T03:32:12.420Z,99235.13
2022-09-14T03:33:15.369Z,99227.81
2022-09-14T03:34:16.849Z,99231.84
2022-09-14T03:35:18.626Z,99231.84
2022-09-14T03:36:20.146Z,99237.53
2022-09-14T03:37:21.575Z,99235.13
2022-09-14T03:38:23.155Z,99232.66
2022-09-14T03:39:24.915Z,99234.69
2022-09-14T03:40:26.480Z,99239.53
2022-09-14T03:41:28.116Z,99231.84
2022-09-14T03:42:29.655Z,99236.69
2022-09-14T03:43:31.371Z,99244.00
2022-09-14T03:44:32.880Z,99242.00
2022-09-14T03:45:36.331Z,99241.56
2022-09-14T03:46:37.922Z,99244.38
2022-09-14T03:47:39.731Z,99242.75
2022-09-14T03:48:41.188Z,99243.56
2022-09-14T03:49:42.635Z,99245.59
2022-09-14T03:50:44.094Z,99243.56
2022-09-14T03:51:45.570Z,99247.22
2022-09-14T03:52:47.161Z,99244.38
2022-09-14T03:53:48.683Z,99240.72
2022-09-14T03:54:50.231Z,99247.22
2022-09-14T03:55:51.762Z,99248.41
2022-09-14T03:56:53.311Z,99244.38
2022-09-14T03:57:55.155Z,99247.22
2022-09-14T03:58:56.738Z,99244.38
2022-09-14T03:59:58.296Z,99240.72
2022-09-14T04:01:06.102Z,99239.09
2022-09-14T04:02:07.654Z,99248.41
2022-09-14T04:03:09.373Z,99245.59
2022-09-14T04:04:10.855Z,99239.91
2022-09-14T04:05:12.331Z,99244.38
2022-09-14T04:06:14.242Z,99241.91
2022-09-14T04:07:15.875Z,99240.72
2022-09-14T04:08:17.347Z,99237.88
2022-09-14T04:09:19.377Z,99239.09
2022-09-14T04:10:20.856Z,99246.41
2022-09-14T04:11:23.011Z,99234.22
2022-09-14T04:12:24.532Z,99232.59
2022-09-14T04:13:26.103Z,99238.25
2022-09-14T04:14:27.671Z,99238.25
2022-09-14T04:15:29.354Z,99243.94
2022-09-14T04:16:30.969Z,99242.75
2022-09-14T04:17:32.556Z,99242.75
2022-09-14T04:18:34.030Z,99239.91
2022-09-14T04:19:37.525Z,99243.94
2022-09-14T04:20:39.060Z,99247.22
2022-09-14T04:21:40.490Z,99239.91
2022-09-14T04:22:41.991Z,99245.59
2022-09-14T04:24:03.442Z,99238.25
2022-09-14T04:25:05.107Z,99238.25
2022-09-14T04:26:10.128Z,99232.59
2022-09-14T04:27:11.670Z,99236.63
2022-09-14T04:28:20.861Z,99230.13
2022-09-14T04:29:22.486Z,99230.13
2022-09-14T04:30:24.070Z,99233.78
2022-09-14T04:31:25.715Z,99232.59
2022-09-14T04:32:29.736Z,99228.09
2022-09-14T04:33:35.195Z,99228.09
2022-09-14T04:34:36.918Z,99219.59
2022-09-14T04:35:38.518Z,99230.94
2022-09-14T04:36:40.044Z,99228.44
2022-09-14T04:37:41.503Z,99232.13
2022-09-14T04:38:43.128Z,99222.75
2022-09-14T04:39:44.713Z,99230.13
2022-09-14T04:40:46.224Z,99232.13
2022-09-14T04:41:47.772Z,99228.44
2022-09-14T04:42:49.234Z,99232.47
2022-09-14T04:43:50.953Z,99232.47
2022-09-14T04:44:52.683Z,99225.97
2022-09-14T04:45:54.202Z,99225.97
2022-09-14T04:46:55.675Z,99227.63
2022-09-14T04:47:57.128Z,99224.78
2022-09-14T04:48:58.614Z,99233.28
2022-09-14T04:50:00.080Z,99227.63
2022-09-14T04:51:14.415Z,99227.63
2022-09-14T04:52:15.895Z,99225.97
2022-09-14T04:53:17.323Z,99225.16
2022-09-14T04:54:18.928Z,99221.94
2022-09-14T04:55:20.411Z,99221.13
2022-09-14T04:56:22.497Z,99227.63
2022-09-14T04:57:24.017Z,99223.97
2022-09-14T04:58:25.490Z,99221.94
2022-09-14T04:59:26.964Z,99215.44
2022-09-14T05:00:29.624Z,99221.94
2022-09-14T05:01:35.536Z,99226.78
2022-09-14T05:02:40.010Z,99220.28
2022-09-14T05:03:41.706Z,99217.47
2022-09-14T05:04:43.519Z,99233.28
2022-09-14T05:05:45.022Z,99228.44
2022-09-14T05:06:46.540Z,99227.63
2022-09-14T05:07:48.038Z,99227.63
2022-09-14T05:08:49.580Z,99236.13
2022-09-14T05:09:51.065Z,99232.47
2022-09-14T05:10:54.874Z,99228.81
2022-09-14T05:11:56.424Z,99236.50
2022-09-14T05:12:57.934Z,99243.81
2022-09-14T05:13:59.494Z,99235.31
2022-09-14T05:15:00.955Z,99237.31
2022-09-14T05:16:08.959Z,99238.53
2022-09-14T05:17:11.118Z,99241.34
2022-09-14T05:18:12.848Z,99245.38
2022-09-14T05:19:15.191Z,99245.38
2022-09-14T05:20:16.659Z,99244.56
2022-09-14T05:21:18.815Z,99243.75
2022-09-14T05:22:21.453Z,99250.25
2022-09-14T05:23:22.912Z,99247.78
2022-09-14T05:24:24.588Z,99245.75
2022-09-14T05:25:27.063Z,99242.91
2022-09-14T05:26:29.139Z,99244.94
2022-09-14T05:27:31.352Z,99238.44
2022-09-14T05:28:33.086Z,99236.41
2022-09-14T05:29:34.748Z,99240.91
2022-09-14T05:30:39.478Z,99236.06
2022-09-14T05:31:40.994Z,99225.34
2022-09-14T05:32:42.523Z,99230.38
2022-09-14T05:33:44.061Z,99234.03
2022-09-14T05:34:45.537Z,99234.03
2022-09-14T05:35:47.218Z,99232.03
2022-09-14T05:36:48.667Z,99235.69
2022-09-14T05:37:50.168Z,99232.84
2022-09-14T05:38:51.631Z,99224.31
2022-09-14T05:39:53.311Z,99219.47
2022-09-14T05:40:55.159Z,99222.31
2022-09-14T05:41:56.791Z,99213.78
2022-09-14T05:42:58.311Z,99207.28
2022-09-14T05:43:59.832Z,99211.78
2022-09-14T05:45:01.405Z,99210.59
2022-09-14T05:46:03.638Z,99210.59
2022-09-14T05:47:05.135Z,99210.59
2022-09-14T05:48:06.658Z,99207.75
2022-09-14T05:49:08.185Z,99209.75
2022-09-14T05:50:09.793Z,99210.97
2022-09-14T05:51:13.867Z,99209.75
2022-09-14T05:52:15.536Z,99206.09
2022-09-14T05:53:16.980Z,99193.41
2022-09-14T05:54:18.527Z,99196.75
2022-09-14T05:55:20.311Z,99195.94
2022-09-14T05:56:22.220Z,99201.63
2022-09-14T05:57:23.691Z,99198.78
2022-09-14T05:58:25.155Z,99202.44
2022-09-14T05:59:26.678Z,99197.59
2022-09-14T06:00:29.451Z,99195.13
2022-09-14T06:01:32.602Z,99204.47
2022-09-14T06:02:34.302Z,99199.97
2022-09-14T06:03:35.805Z,99188.63
2022-09-14T06:04:37.371Z,99197.13
2022-09-14T06:05:38.860Z,99194.28
2022-09-14T06:06:40.438Z,99197.13
2022-09-14T06:07:41.959Z,99195.94
2022-09-14T06:08:43.472Z,99195.94
2022-09-14T06:09:44.899Z,99199.97
2022-09-14T06:10:46.493Z,99202.00
2022-09-14T06:11:47.980Z,99204.00
2022-09-14T06:12:52.308Z,99205.66
2022-09-14T06:13:56.404Z,99200.78
2022-09-14T06:14:57.899Z,99204.47
2022-09-14T06:16:05.834Z,99215.81
2022-09-14T06:17:07.262Z,99217.00
2022-09-14T06:18:08.710Z,99214.16
2022-09-14T06:19:11.380Z,99216.19
2022-09-14T06:20:12.820Z,99215.34
2022-09-14T06:21:19.156Z,99220.59
2022-09-14T06:22:20.818Z,99230.75
2022-09-14T06:23:22.363Z,99225.44
2022-09-14T06:24:23.814Z,99225.06
2022-09-14T06:25:25.457Z,99229.09
2022-09-14T06:26:26.974Z,99229.09
2022-09-14T06:27:28.510Z,99228.28
2022-09-14T06:28:30.118Z,99237.97
2022-09-14T06:29:31.846Z,99245.31
2022-09-14T06:30:33.303Z,99240.81
2022-09-14T06:31:34.762Z,99234.78
2022-09-14T06:32:36.231Z,99246.94
2022-09-14T06:33:37.740Z,99246.13
2022-09-14T06:34:39.198Z,99241.28
2022-09-14T06:35:42.124Z,99244.94
2022-09-14T06:36:44.786Z,99242.09
2022-09-14T06:37:46.227Z,99239.25
2022-09-14T06:38:48.894Z,99240.44
2022-09-14T06:39:50.476Z,99229.09
2022-09-14T06:40:56.887Z,99238.81
2022-09-14T06:41:58.411Z,99233.13
2022-09-14T06:43:03.343Z,99230.28
2022-09-14T06:44:04.849Z,99237.63
2022-09-14T06:45:06.683Z,99218.94
2022-09-14T06:46:10.266Z,99228.28
2022-09-14T06:47:11.695Z,99226.25
2022-09-14T06:48:13.167Z,99225.88
2022-09-14T06:49:20.531Z,99220.22
2022-09-14T06:50:22.023Z,99220.22
2022-09-14T06:51:28.899Z,99225.53
2022-09-14T06:52:33.686Z,99215.34
2022-09-14T06:53:35.420Z,99217.81
2022-09-14T06:54:36.863Z,99215.81
2022-09-14T06:55:38.342Z,99214.63
2022-09-14T06:56:40.081Z,99220.28
2022-09-14T06:57:43.081Z,99213.41
2022-09-14T06:58:44.806Z,99214.25
2022-09-14T06:59:46.303Z,99205.72
2022-09-14T07:00:47.838Z,99206.59
2022-09-14T07:01:52.450Z,99205.38
2022-09-14T07:02:55.742Z,99211.06
2022-09-14T07:03:58.111Z,99209.88
2022-09-14T07:05:00.093Z,99201.34
2022-09-14T07:06:02.448Z,99204.19
2022-09-14T07:07:03.931Z,99199.34
2022-09-14T07:08:08.973Z,99183.13
2022-09-14T07:09:13.442Z,99175.81
2022-09-14T07:10:14.968Z,99170.59
2022-09-14T07:11:17.266Z,99168.56
2022-09-14T07:12:18.811Z,99163.25
2022-09-14T07:13:20.270Z,99162.06
2022-09-14T07:14:21.732Z,99164.53
2022-09-14T07:15:23.215Z,99170.22
2022-09-14T07:16:27.325Z,99165.34
2022-09-14T07:17:28.794Z,99179.19
2022-09-14T07:18:34.052Z,99187.31
2022-09-14T07:19:35.490Z,99190.97
2022-09-14T07:20:36.967Z,99185.31
2022-09-14T07:21:38.514Z,99180.44
2022-09-14T07:22:40.004Z,99178.34
2022-09-14T07:23:42.263Z,99188.06
2022-09-14T07:24:43.721Z,99220.56
2022-09-14T07:25:45.159Z,99235.94
2022-09-14T07:26:46.640Z,99214.06
2022-09-14T07:27:48.174Z,99225.88
2022-09-14T07:28:50.899Z,99231.19
2022-09-14T07:29:52.359Z,99232.00
2022-09-14T07:30:58.357Z,99232.00
2022-09-14T07:32:00.407Z,99230.84
2022-09-14T07:33:01.911Z,99212.41
2022-09-14T07:34:03.909Z,99226.81
2022-09-14T07:35:05.441Z,99221.94
2022-09-14T07:36:07.739Z,99229.66
2022-09-14T07:37:09.354Z,99232.47
2022-09-14T07:38:10.789Z,99231.66
2022-09-14T07:39:13.507Z,99220.66
2022-09-14T07:40:15.012Z,99226.31
2022-09-14T07:41:16.549Z,99223.84
2022-09-14T07:42:18.026Z,99227.06
2022-09-14T07:43:19.471Z,99221.38
2022-09-14T07:44:20.929Z,99219.75
2022-09-14T07:45:22.429Z,99223.03
2022-09-14T07:46:23.933Z,99217.34
2022-09-14T07:47:25.466Z,99226.31
2022-09-14T07:48:26.916Z,99216.28
2022-09-14T07:49:28.408Z,99211.03
2022-09-14T07:50:29.891Z,99212.69
2022-09-14T07:51:31.534Z,99224.88
2022-09-14T07:52:37.979Z,99216.78
2022-09-14T07:53:42.631Z,99214.44
2022-09-14T07:54:44.313Z,99225.09
2022-09-14T07:55:45.804Z,99214.16
2022-09-14T07:56:47.431Z,99224.78
2022-09-14T07:57:56.616Z,99220.75
2022-09-14T07:59:11.860Z,99216.78
2022-09-14T08:00:19.120Z,99220.09
2022-09-14T08:01:21.918Z,99209.84
2022-09-14T08:02:24.485Z,99228.78
2022-09-14T08:03:26.181Z,99231.69
2022-09-14T08:04:27.614Z,99232.16
2022-09-14T08:05:29.067Z,99232.63
2022-09-14T08:06:30.652Z,99237.94
2022-09-14T08:07:32.082Z,99244.50
2022-09-14T08:08:34.814Z,99242.50
2022-09-14T08:09:47.697Z,99241.28
2022-09-14T08:10:49.127Z,99239.72
2022-09-14T08:11:50.630Z,99237.69
2022-09-14T08:12:52.618Z,99232.50
2022-09-14T08:13:55.156Z,99234.97
2022-09-14T08:14:56.582Z,99230.91
2022-09-14T08:16:00.858Z,99239.06
2022-09-14T08:17:02.406Z,99239.06
2022-09-14T08:18:03.873Z,99252.09
2022-09-14T08:19:05.771Z,99252.91
2022-09-14T08:20:07.331Z,99253.72
2022-09-14T08:21:09.811Z,99265.09
2022-09-14T08:22:11.287Z,99275.25
2022-09-14T08:23:13.053Z,99276.09
2022-09-14T08:24:16.025Z,99273.69
2022-09-14T08:25:17.499Z,99273.63
2022-09-14T08:26:19.670Z,99278.84
2022-09-14T08:27:21.086Z,99275.56
2022-09-14T08:28:22.498Z,99279.59
2022-09-14T08:29:23.963Z,99283.28
2022-09-14T08:30:25.447Z,99282.06
2022-09-14T08:31:27.326Z,99290.97
2022-09-14T08:32:28.847Z,99287.69
2022-09-14T08:33:31.048Z,99290.97
2022-09-14T08:34:32.473Z,99303.53
2022-09-14T08:35:56.375Z,99296.66
2022-09-14T08:36:55.286Z,99297.47
2022-09-14T08:37:56.703Z,99290.97
2022-09-14T08:38:58.230Z,99289.78
2022-09-14T08:39:59.685Z,99282.00
2022-09-14T08:41:05.971Z,99270.91
2022-09-14T08:42:09.182Z,99277.97
2022-09-14T08:43:11.381Z,99284.53
2022-09-14T08:44:15.748Z,99287.75
2022-09-14T08:45:17.158Z,99297.91
2022-09-14T08:46:31.743Z,99291.78
2022-09-14T08:47:36.144Z,99297.84
2022-09-14T08:48:37.962Z,99299.38
2022-09-14T08:49:59.665Z,99293.38
2022-09-14T08:51:01.105Z,99296.28
2022-09-14T08:52:02.540Z,99297.38
2022-09-14T08:53:05.633Z,99299.03
2022-09-14T08:54:07.295Z,99291.78
2022-09-14T08:55:17.482Z,99289.41
2022-09-14T08:56:21.504Z,99287.81
2022-09-14T08:57:26.384Z,99284.25
2022-09-14T08:58:48.449Z,99287.44
2022-09-14T09:00:11.586Z,99273.63
2022-09-14T09:01:16.336Z,99272.41
2022-09-14T09:02:24.194Z,99274.50
2022-09-14T09:03:28.284Z,99272.88
2022-09-14T09:04:29.758Z,99276.09
2022-09-14T09:05:43.169Z,99270.03
2022-09-14T09:06:53.918Z,99267.19
2022-09-14T09:07:58.270Z,99270.94
2022-09-14T09:09:05.328Z,99270.19
2022-09-14T09:10:06.848Z,99272.75
2022-09-14T09:11:10.184Z,99271.53
2022-09-14T09:12:15.329Z,99278.97
2022-09-14T09:13:19.153Z,99269.69
2022-09-14T09:14:20.517Z,99275.03
2022-09-14T09:15:21.923Z,99284.44
2022-09-14T09:16:24.080Z,99281.16
2022-09-14T09:17:25.808Z,99283.63
2022-09-14T09:18:36.319Z,99282.09
2022-09-14T09:19:38.873Z,99287.03
2022-09-14T09:20:40.871Z,99284.63
2022-09-14T09:21:43.804Z,99275.72
2022-09-14T09:22:47.028Z,99283.88
2022-09-14T09:23:48.427Z,99281.03
2022-09-14T09:24:51.621Z,99276.97
2022-09-14T09:25:59.084Z,99274.13
2022-09-14T09:27:00.893Z,99277.44
2022-09-14T09:28:02.976Z,99269.75
2022-09-14T09:29:06.674Z,99273.41
2022-09-14T09:30:26.830Z,99271.41
2022-09-14T09:31:33.326Z,99269.38
2022-09-14T09:32:58.539Z,99283.13
2022-09-14T09:34:27.881Z,99276.16
2022-09-14T09:35:41.866Z,99274.06
2022-09-14T09:37:04.894Z,99276.09
2022-09-14T09:38:12.955Z,99268.75
2022-09-14T09:39:14.474Z,99273.91
2022-09-14T09:40:19.969Z,99268.97
2022-09-14T09:41:23.019Z,99261.66
2022-09-14T09:42:25.330Z,99260.00
2022-09-14T09:43:45.723Z,99261.66
2022-09-14T09:45:03.275Z,99243.75
2022-09-14T09:46:06.878Z,99233.22
2022-09-14T09:47:08.658Z,99231.56
2022-09-14T09:48:10.242Z,99229.91
2022-09-14T09:49:16.302Z,99226.72
2022-09-14T09:50:18.732Z,99217.34
2022-09-14T09:51:30.350Z,99213.22
2022-09-14T09:52:33.068Z,99218.06
2022-09-14T09:53:34.907Z,99212.31
2022-09-14T09:54:36.329Z,99214.41
2022-09-14T09:55:38.358Z,99209.94
2022-09-14T09:56:58.321Z,99204.69
2022-09-14T09:58:15.511Z,99218.91
2022-09-14T09:59:27.113Z,99211.19
2022-09-14T10:00:29.848Z,99218.53
2022-09-14T10:01:32.285Z,99220.91
2022-09-14T10:02:33.991Z,99223.03
2022-09-14T10:03:38.442Z,99221.75
2022-09-14T10:04:40.005Z,99213.22
2022-09-14T10:05:41.507Z,99216.16
2022-09-14T10:06:44.071Z,99218.25
2022-09-14T10:07:56.402Z,99213.84
2022-09-14T10:08:57.965Z,99209.94
2022-09-14T10:10:04.032Z,99200.31
2022-09-14T10:11:05.522Z,99200.75
2022-09-14T10:12:06.998Z,99192.72
2022-09-14T10:13:20.632Z,99198.47
2022-09-14T10:14:25.271Z,99189.25
2022-09-14T10:15:27.999Z,99195.53
2022-09-14T10:16:39.200Z,99195.16
2022-09-14T10:17:40.990Z,99188.66
2022-09-14T10:18:49.459Z,99192.38
2022-09-14T10:19:52.277Z,99186.81
2022-09-14T10:20:53.695Z,99179.66
2022-09-14T10:22:02.503Z,99191.69
2022-09-14T10:23:18.892Z,99196.31
2022-09-14T10:24:21.106Z,99181.56
2022-09-14T10:25:24.069Z,99186.72
2022-09-14T10:26:25.918Z,99178.75
2022-09-14T10:27:52.854Z,99183.72
2022-09-14T10:28:54.488Z,99179.84
2022-09-14T10:29:56.011Z,99169.00
2022-09-14T10:31:06.484Z,99166.66
2022-09-14T10:32:34.113Z,99155.88
2022-09-14T10:33:35.554Z,99151.25
2022-09-14T10:34:37.039Z,99152.28
2022-09-14T10:35:41.424Z,99152.84
2022-09-14T10:36:44.364Z,99150.44
2022-09-14T10:37:50.604Z,99157.47
2022-09-14T10:38:58.598Z,99160.03
2022-09-14T10:40:06.158Z,99151.66
2022-09-14T10:41:10.634Z,99154.59
2022-09-14T10:42:17.680Z,99157.53
2022-09-14T10:43:24.582Z,99142.03
2022-09-14T10:44:44.660Z,99144.91
2022-09-14T10:45:53.012Z,99144.16
2022-09-14T10:46:54.567Z,99139.28
2022-09-14T10:47:56.042Z,99131.09
2022-09-14T10:49:06.680Z,99137.63
2022-09-14T10:50:27.091Z,99137.22
2022-09-14T10:51:32.598Z,99136.03
2022-09-14T10:52:37.103Z,99128.75
2022-09-14T10:53:41.685Z,99133.66
2022-09-14T10:54:46.090Z,99138.56
2022-09-14T10:55:50.270Z,99137.75
2022-09-14T10:57:05.432Z,99127.19
2022-09-14T10:58:18.082Z,99128.09
2022-09-14T10:59:27.742Z,99124.41
2022-09-14T11:00:31.147Z,99119.13
2022-09-14T11:02:07.964Z,99102.84
2022-09-14T11:03:12.569Z,99099.66
2022-09-14T11:04:14.419Z,99110.31
2022-09-14T11:05:20.711Z,99112.84
2022-09-14T11:06:25.096Z,99105.09
2022-09-14T11:07:45.481Z,99108.41
2022-09-14T11:08:49.130Z,99112.91
2022-09-14T11:10:11.717Z,99108.81
2022-09-14T11:11:23.214Z,99103.91
2022-09-14T11:12:26.726Z,99101.84
2022-09-14T11:13:34.010Z,99103.09
2022-09-14T11:14:53.940Z,99101.06
2022-09-14T11:15:58.833Z,99106.00
2022-09-14T11:17:02.913Z,99100.25
2022-09-14T11:18:07.240Z,99097.78
2022-09-14T11:19:31.835Z,99094.94
2022-09-14T11:20:48.227Z,99098.63
2022-09-14T11:21:56.172Z,99100.25
2022-09-14T11:23:11.682Z,99090.84
2022-09-14T11:24:18.843Z,99089.22
2022-09-14T11:25:23.099Z,99081.00
2022-09-14T11:26:26.433Z,99083.88
2022-09-14T11:27:44.603Z,99082.66
2022-09-14T11:28:52.724Z,99087.16
2022-09-14T11:29:56.219Z,99076.53
2022-09-14T11:31:10.762Z,99083.09
2022-09-14T11:32:32.544Z,99077.34
2022-09-14T11:33:35.703Z,99083.50
2022-09-14T11:34:43.923Z,99088.38
2022-09-14T11:35:58.727Z,99083.06
2022-09-14T11:37:03.543Z,99089.19
2022-09-14T11:38:09.033Z,99090.03
2022-09-14T11:39:13.617Z,99085.13
2022-09-14T11:40:26.625Z,99088.41
2022-09-14T11:41:32.458Z,99085.09
2022-09-14T11:42:35.843Z,99087.56
2022-09-14T11:43:46.243Z,99088.78
2022-09-14T11:44:47.739Z,99085.91
2022-09-14T11:45:52.988Z,99083.03
2022-09-14T11:46:57.599Z,99083.84
2022-09-14T11:48:38.296Z,99096.13
2022-09-14T11:49:34.524Z,99090.81
2022-09-14T11:50:35.983Z,99094.09
2022-09-14T11:51:48.676Z,99090.81
2022-09-14T11:52:53.271Z,99090.41
2022-09-14T11:53:54.806Z,99087.13
2022-09-14T11:54:56.625Z,99092.84
2022-09-14T11:55:58.126Z,99088.75
2022-09-14T11:57:03.108Z,99092.44
2022-09-14T11:58:05.082Z,99085.09
2022-09-14T11:59:07.116Z,99092.84
2022-09-14T12:00:10.248Z,99083.03
2022-09-14T12:01:29.990Z,99088.78
2022-09-14T12:02:37.482Z,99077.31
2022-09-14T12:03:51.140Z,99077.31
2022-09-14T12:05:08.108Z,99072.81
2022-09-14T12:06:29.817Z,99068.31
2022-09-14T12:07:42.239Z,99061.38
2022-09-14T12:08:43.880Z,99068.31
2022-09-14T12:09:45.434Z,99066.66
2022-09-14T12:11:05.455Z,99063.81
2022-09-14T12:12:08.827Z,99052.34
2022-09-14T12:13:10.251Z,99056.44
2022-09-14T12:14:23.963Z,99054.41
2022-09-14T12:15:26.054Z,99046.63
2022-09-14T12:16:30.580Z,99053.19
2022-09-14T12:17:41.703Z,99051.94
2022-09-14T12:18:43.701Z,99052.75
2022-09-14T12:19:45.351Z,99051.53
2022-09-14T12:20:48.316Z,99054.81
2022-09-14T12:21:49.773Z,99055.63
2022-09-14T12:22:51.267Z,99060.13
2022-09-14T12:23:57.155Z,99065.44
2022-09-14T12:25:10.424Z,99063.00
2022-09-14T12:26:12.234Z,99068.69
2022-09-14T12:27:22.876Z,99072.78
2022-09-14T12:28:36.817Z,99078.50
2022-09-14T12:29:38.295Z,99071.56
2022-09-14T12:30:40.884Z,99069.53
2022-09-14T12:31:47.440Z,99078.91
2022-09-14T12:32:49.180Z,99076.06
2022-09-14T12:34:06.057Z,99078.47
2022-09-14T12:35:37.184Z,99083.78
2022-09-14T12:36:38.683Z,99081.72
2022-09-14T12:37:40.118Z,99082.94